createdAt,value
2019-04-14T00:21:34.679Z,93.20
2019-04-14T00:24:31.416Z,92.90
2019-04-14T00:33:01.917Z,92.80
2019-04-14T00:38:52.266Z,92.70
2019-04-14T00:48:01.142Z,93.00
2019-04-14T00:50:39.256Z,93.30
2019-04-14T00:53:16.773Z,93.80
2019-04-14T01:08:14.104Z,93.80
2019-04-14T01:10:50.046Z,93.80
2019-04-14T01:13:31.206Z,93.70
2019-04-14T01:19:04.684Z,93.20
2019-04-14T01:21:50.210Z,93.00
2019-04-14T01:27:36.336Z,92.90
2019-04-14T01:30:26.613Z,92.90
2019-04-14T01:36:17.015Z,93.10
2019-04-14T01:51:18.271Z,92.80
2019-04-14T01:59:46.705Z,93.40
2019-04-14T02:08:15.860Z,93.50
2019-04-14T02:11:02.987Z,93.60
2019-04-14T02:13:50.729Z,93.80
2019-04-14T02:19:31.197Z,94.10
2019-04-14T02:25:29.552Z,94.50
2019-04-14T02:28:26.477Z,94.60
2019-04-14T02:31:18.050Z,94.80
2019-04-14T02:37:10.660Z,95.30
2019-04-14T02:58:04.378Z,96.20
2019-04-14T03:00:41.911Z,96.40
2019-04-14T03:03:33.294Z,96.60
2019-04-14T03:06:12.093Z,96.70
2019-04-14T03:08:52.071Z,96.80
2019-04-14T03:11:25.810Z,96.90
2019-04-14T03:14:06.315Z,97.10
2019-04-14T03:17:16.191Z,97.20
2019-04-14T03:42:43.814Z,94.80
2019-04-14T03:48:31.865Z,94.40
2019-04-14T03:50:56.108Z,94.30
2019-04-14T04:05:10.702Z,93.80
2019-04-14T04:07:53.848Z,93.60
2019-04-14T04:13:28.287Z,93.60
2019-04-14T04:16:13.831Z,93.30
2019-04-14T04:52:47.454Z,91.00
2019-04-14T04:55:28.620Z,90.80
2019-04-14T04:58:09.975Z,91.00
2019-04-14T05:00:57.715Z,90.50
2019-04-14T05:06:45.925Z,90.10
2019-04-14T05:18:40.249Z,89.20
2019-04-14T06:12:40.280Z,84.70
2019-04-14T06:27:12.722Z,82.10
2019-04-14T06:29:52.487Z,82.20
2019-04-14T06:35:43.574Z,81.60
2019-04-14T06:38:31.987Z,81.60
2019-04-14T06:41:21.596Z,79.10
2019-04-14T06:46:52.139Z,73.70
2019-04-14T06:52:32.018Z,65.20
2019-04-14T07:01:21.353Z,58.70
2019-04-14T07:10:05.703Z,51.80
2019-04-14T07:12:43.154Z,51.80
2019-04-14T07:28:03.013Z,47.60
2019-04-14T07:37:03.500Z,46.40
2019-04-14T07:45:53.549Z,45.20
2019-04-14T07:52:26.939Z,44.00
2019-04-14T09:20:23.429Z,37.10
2019-04-14T16:21:57.780Z,39.30
2019-04-14T17:20:02.148Z,68.40
2019-04-14T17:26:03.353Z,70.70
2019-04-14T17:28:58.755Z,71.00
2019-04-14T17:31:55.879Z,71.80
2019-04-14T17:34:56.950Z,72.70
2019-04-14T17:37:52.335Z,73.30
2019-04-14T17:40:35.823Z,74.10
2019-04-14T17:46:36.024Z,75.60
2019-04-14T17:58:41.866Z,78.20
2019-04-14T18:01:22.890Z,78.90
2019-04-14T18:04:16.118Z,79.60
2019-04-14T18:07:14.684Z,80.60
2019-04-14T18:10:09.151Z,81.60
2019-04-14T18:13:09.030Z,82.20
2019-04-14T18:16:07.464Z,83.20
2019-04-14T18:22:00.648Z,84.50
2019-04-14T18:44:28.536Z,89.60
2019-04-14T18:56:47.440Z,90.40
2019-04-14T18:59:37.818Z,90.60
2019-04-14T19:02:22.686Z,90.70
2019-04-14T19:04:56.973Z,90.90
2019-04-14T19:10:58.953Z,90.90
2019-04-14T19:13:48.623Z,91.10
2019-04-14T19:16:39.908Z,91.10
2019-04-14T19:19:17.302Z,91.20
2019-04-14T19:21:52.985Z,91.30
2019-04-14T19:24:46.550Z,91.60
2019-04-14T19:27:19.825Z,91.70
2019-04-14T19:29:56.787Z,91.90
2019-04-14T19:32:46.858Z,92.30
2019-04-14T19:38:17.814Z,93.50
2019-04-14T19:40:54.426Z,93.90
2019-04-14T19:43:28.144Z,94.20
2019-04-14T19:46:07.996Z,94.40
2019-04-14T19:48:45.019Z,94.80
2019-04-14T19:51:18.573Z,95.30
2019-04-14T19:54:07.842Z,95.40
2019-04-14T19:59:45.283Z,95.70
2019-04-14T20:02:44.258Z,95.70
2019-04-14T20:08:58.355Z,95.80
2019-04-14T20:11:37.033Z,95.90
2019-04-14T20:17:22.662Z,96.40
2019-04-14T20:20:24.738Z,96.60
2019-04-14T20:23:20.251Z,96.70
2019-04-14T20:32:46.027Z,96.90
2019-04-14T20:44:45.441Z,97.40
2019-04-14T20:50:18.571Z,97.60
2019-04-14T20:59:04.912Z,97.80
2019-04-14T21:04:50.394Z,97.90
2019-04-14T21:07:41.487Z,98.00
2019-04-14T21:10:17.693Z,98.10
2019-04-14T21:13:04.734Z,98.20
2019-04-14T21:15:38.383Z,98.40
2019-04-14T21:18:16.420Z,98.40
2019-04-14T21:20:50.639Z,98.50
2019-04-14T21:23:31.768Z,98.50
2019-04-14T21:26:27.534Z,98.50
2019-04-14T21:31:58.969Z,98.50
2019-04-14T21:34:39.131Z,98.70
2019-04-14T21:37:33.764Z,98.70
2019-04-14T21:40:28.112Z,98.80
2019-04-14T21:45:58.971Z,98.80
2019-04-14T21:48:37.995Z,98.80
2019-04-14T21:51:12.411Z,98.90
2019-04-14T21:53:54.827Z,99.00
2019-04-14T21:56:40.753Z,99.00
2019-04-14T21:59:27.952Z,99.10
2019-04-14T22:02:15.606Z,99.20
2019-04-14T22:04:57.277Z,99.30
2019-04-14T22:07:33.454Z,99.40
2019-04-14T22:10:08.694Z,99.50
2019-04-14T22:12:40.655Z,99.60
2019-04-14T22:15:14.535Z,99.70
2019-04-14T22:17:44.889Z,99.80
2019-04-14T22:20:17.117Z,99.90
2019-04-14T22:22:53.129Z,99.90
2019-04-14T22:25:26.574Z,99.90
2019-04-14T22:28:01.402Z,99.90
2019-04-14T22:30:32.109Z,99.90
2019-04-14T22:33:07.213Z,99.90
2019-04-14T22:35:38.354Z,99.90
2019-04-14T22:38:11.789Z,99.90
2019-04-14T22:40:41.730Z,99.90
2019-04-14T22:43:13.030Z,99.90
2019-04-14T22:45:47.645Z,99.90
2019-04-14T22:48:22.369Z,99.90
2019-04-14T22:50:54.603Z,99.90
2019-04-14T22:53:24.895Z,99.90
2019-04-14T22:56:21.848Z,99.90
2019-04-14T22:58:53.323Z,99.90
2019-04-14T23:01:25.217Z,99.90
2019-04-14T23:03:57.540Z,99.90
2019-04-14T23:06:30.883Z,99.90
2019-04-14T23:09:23.097Z,99.90
2019-04-14T23:12:07.665Z,99.90
2019-04-14T23:14:39.087Z,99.90
2019-04-14T23:17:29.419Z,99.90
2019-04-14T23:20:08.957Z,99.90
2019-04-14T23:22:40.390Z,99.90
2019-04-14T23:25:13.428Z,99.90
2019-04-14T23:27:46.139Z,99.90
2019-04-14T23:30:17.026Z,99.90
2019-04-14T23:32:49.063Z,99.90
2019-04-14T23:35:20.449Z,99.90
2019-04-14T23:37:53.573Z,99.90
2019-04-14T23:40:25.157Z,99.90
2019-04-14T23:42:55.527Z,99.90
2019-04-14T23:45:27.593Z,99.90
2019-04-14T23:47:57.421Z,99.90
2019-04-14T23:50:27.241Z,99.90
2019-04-14T23:52:57.171Z,99.90
2019-04-14T23:55:28.329Z,99.90
2019-04-14T23:57:58.212Z,99.90
